| time (UTC) | temp C | wind direction | speed KPH | gust KPH | rain 1hr cm | rain 24hr cm | rain mn cm | humidity % | barometer mb |
| 20260906061528 | 21 | 281 | 0.0 | 0.0 | 0.03 | 0.51 | 0.03 | 95 | 1013.9 |
| 20260906060029 | 21 | 269 | 0.0 | 0.0 | 0.00 | 0.48 | 0.00 | 95 | 1014.1 |
| 20260906054538 | 21 | 119 | 0.0 | 0.0 | 0.00 | 0.48 | 0.00 | 95 | 1014.4 |
| 20260906053032 | 21 | 253 | 0.0 | 0.0 | 0.00 | 0.48 | 0.00 | 95 | 1014.5 |
| 20260906051523 | 21 | 206 | 0.0 | 0.0 | 0.00 | 0.48 | 0.00 | 95 | 1014.7 |
| 20260906050027 | 21 | 279 | 0.0 | 1.6 | 0.00 | 0.48 | 0.00 | 95 | 1014.9 |
| 20260906044528 | 21 | 44 | 1.6 | 3.2 | 0.00 | 0.48 | 0.00 | 96 | 1014.9 |
| 20260906043033 | 21 | 241 | 0.0 | 0.0 | 0.00 | 0.48 | 0.00 | 95 | 1014.6 |
| 20260906041533 | 21 | 241 | 0.0 | 0.0 | 0.00 | 0.48 | 0.00 | 95 | 1014.5 |
| 20260906040023 | 22 | 309 | 0.0 | 1.6 | 0.00 | 0.48 | 0.00 | 95 | 1014.8 |
| 20260906034504 | 22 | 127 | 0.0 | 0.0 | 0.00 | 0.48 | 0.48 | 95 | 1015.2 |
| 20260906033007 | 22 | 311 | 0.0 | 0.0 | 0.00 | 0.48 | 0.48 | 95 | 1015.1 |
| 20260906031510 | 22 | 19 | 0.0 | 0.0 | 0.00 | 0.48 | 0.48 | 95 | 1014.7 |
| 20260906030008 | 22 | 36 | 0.0 | 0.0 | 0.00 | 0.48 | 0.48 | 95 | 1014.7 |
| 20260906024510 | 22 | 237 | 0.0 | 1.6 | 0.00 | 0.48 | 0.48 | 95 | 1014.9 |
| 20260906023006 | 22 | 151 | 0.0 | 0.0 | 0.00 | 0.48 | 0.48 | 95 | 1015.0 |
| 20260906021508 | 22 | 128 | 0.0 | 0.0 | 0.00 | 0.48 | 0.48 | 95 | 1014.8 |
| 20260906020013 | 22 | 128 | 0.0 | 3.2 | 0.00 | 0.48 | 0.48 | 95 | 1014.7 |
| 20260906014516 | 22 | 240 | 0.0 | 1.6 | 0.00 | 0.48 | 0.48 | 95 | 1014.6 |
| 20260906013017 | 22 | 240 | 0.0 | 1.6 | 0.00 | 0.48 | 0.48 | 94 | 1014.2 |
| 20260906011511 | 22 | 125 | 0.0 | 1.6 | 0.00 | 0.48 | 0.48 | 94 | 1014.3 |
| 20260906010008 | 22 | 125 | 0.0 | 1.6 | 0.00 | 0.48 | 0.48 | 94 | 1014.2 |
| 20260906004515 | 22 | 162 | 0.0 | 1.6 | 0.00 | 0.48 | 0.48 | 93 | 1014.2 |
| 20260906003020 | 22 | 161 | 0.0 | 0.0 | 0.00 | 0.48 | 0.48 | 93 | 1014.0 |
| 20260906001514 | 23 | 166 | 0.0 | 1.6 | 0.00 | 0.48 | 0.48 | 92 | 1014.0 |
| 20260906000012 | 23 | 195 | 0.0 | 1.6 | 0.00 | 0.48 | 0.48 | 91 | 1014.0 |
| 20260905234507 | 23 | 212 | 0.0 | 4.8 | 0.00 | 0.48 | 0.48 | 91 | 1013.6 |
| 20260905233018 | 23 | 255 | 1.6 | 3.2 | 0.00 | 0.48 | 0.48 | 90 | 1013.6 |
| 20260905231516 | 24 | 279 | 0.0 | 1.6 | 0.00 | 0.48 | 0.48 | 89 | 1013.4 |
| 20260905230014 | 25 | 45 | 0.0 | 3.2 | 0.00 | 0.48 | 0.48 | 85 | 1013.4 |
| 20260905224519 | 25 | 283 | 0.0 | 1.6 | 0.00 | 0.48 | 0.48 | 86 | 1013.7 |
| 20260905223008 | 24 | 228 | 0.0 | 3.2 | 0.00 | 0.48 | 0.48 | 88 | 1013.7 |
| 20260905221514 | 24 | 228 | 1.6 | 3.2 | 0.00 | 0.48 | 0.48 | 90 | 1013.6 |
| 20260905220018 | 25 | 135 | 1.6 | 6.4 | 0.00 | 0.48 | 0.48 | 83 | 1013.5 |
| 20260905214515 | 24 | 109 | 0.0 | 1.6 | 0.00 | 0.48 | 0.48 | 85 | 1013.6 |
| 20260905213018 | 23 | 46 | 0.0 | 0.0 | 0.00 | 0.48 | 0.48 | 89 | 1013.9 |
| 20260905211512 | 23 | 287 | 0.0 | 0.0 | 0.00 | 0.48 | 0.48 | 89 | 1014.2 |
| 20260905210014 | 23 | 31 | 0.0 | 0.0 | 0.00 | 0.48 | 0.48 | 90 | 1014.1 |
| 20260905204517 | 23 | 333 | 0.0 | 4.8 | 0.00 | 0.48 | 0.48 | 91 | 1014.1 |
| 20260905203025 | 23 | 30 | 1.6 | 4.8 | 0.00 | 0.48 | 0.48 | 90 | 1014.0 |
| 20260905201524 | 22 | 292 | 1.6 | 3.2 | 0.03 | 0.48 | 0.48 | 91 | 1014.2 |
| 20260905200018 | 22 | 274 | 0.0 | 3.2 | 0.08 | 0.48 | 0.48 | 92 | 1015.1 |
| 20260905194517 | 22 | 27 | 0.0 | 3.2 | 0.43 | 0.48 | 0.48 | 90 | 1015.8 |
| 20260905193028 | 22 | 39 | 1.6 | 4.8 | 0.48 | 0.48 | 0.48 | 89 | 1014.9 |
| 20260905191537 | 22 | 279 | 3.2 | 14.5 | 0.46 | 0.46 | 0.46 | 86 | 1015.4 |
| 20260905190043 | 23 | 240 | 4.8 | 16.1 | 0.41 | 0.41 | 0.41 | 82 | 1015.3 |
| 20260905184536 | 26 | 334 | 8.0 | 24.1 | 0.05 | 0.05 | 0.05 | 77 | 1014.3 |
| 20260905183018 | 33 | 55 | 12.9 | 25.7 | 0.00 | 0.00 | 0.00 | 51 | 1014.3 |
| 20260905181523 | 35 | 35 | 6.4 | 17.7 | 0.00 | 0.00 | 0.00 | 46 | 1014.2 |
| 20260905180027 | 35 | 13 | 3.2 | 8.0 | 0.00 | 0.00 | 0.00 | 47 | 1014.2 |
| 20260905174509 | 35 | 21 | 4.8 | 17.7 | 0.00 | 0.00 | 0.00 | 47 | 1014.5 |
| 20260905173016 | 35 | 316 | 1.6 | 6.4 | 0.00 | 0.00 | 0.00 | 51 | 1014.5 |
| 20260905171520 | 35 | 15 | 8.0 | 14.5 | 0.00 | 0.00 | 0.00 | 49 | 1014.6 |
| 20260905170029 | 35 | 37 | 1.6 | 8.0 | 0.00 | 0.00 | 0.00 | 51 | 1015.0 |
| 20260905164526 | 35 | 291 | 1.6 | 6.4 | 0.00 | 0.00 | 0.00 | 51 | 1015.3 |
| 20260905163009 | 34 | 231 | 1.6 | 6.4 | 0.00 | 0.00 | 0.00 | 55 | 1015.5 |
| 20260905161514 | 33 | 280 | 1.6 | 6.4 | 0.00 | 0.00 | 0.00 | 56 | 1015.6 |
| 20260905160023 | 33 | 158 | 3.2 | 6.4 | 0.00 | 0.00 | 0.00 | 58 | 1015.7 |
| 20260905154526 | 33 | 186 | 1.6 | 4.8 | 0.00 | 0.00 | 0.00 | 59 | 1015.8 |
| 20260905153037 | 32 | 158 | 0.0 | 4.8 | 0.00 | 0.00 | 0.00 | 61 | 1016.0 |
| 20260905151513 | 32 | 196 | 3.2 | 6.4 | 0.00 | 0.00 | 0.00 | 64 | 1016.1 |
| 20260905150016 | 31 | 292 | 0.0 | 3.2 | 0.00 | 0.00 | 0.00 | 66 | 1016.2 |
| 20260905144526 | 31 | 220 | 1.6 | 6.4 | 0.00 | 0.00 | 0.00 | 67 | 1016.2 |
| 20260905143029 | 30 | 259 | 1.6 | 6.4 | 0.00 | 0.00 | 0.00 | 70 | 1016.2 |
| 20260905141542 | 30 | 203 | 0.0 | 4.8 | 0.00 | 0.00 | 0.00 | 71 | 1016.3 |
| 20260905140029 | 29 | 254 | 0.0 | 6.4 | 0.00 | 0.00 | 0.00 | 75 | 1016.5 |
| 20260905134518 | 28 | 236 | 1.6 | 4.8 | 0.00 | 0.00 | 0.00 | 77 | 1016.6 |
| 20260905133023 | 27 | 269 | 0.0 | 3.2 | 0.00 | 0.00 | 0.00 | 80 | 1016.6 |
| 20260905131529 | 26 | 221 | 0.0 | 3.2 | 0.00 | 0.00 | 0.00 | 81 | 1016.6 |
| 20260905130032 | 26 | 231 | 0.0 | 1.6 | 0.00 | 0.00 | 0.00 | 86 | 1016.6 |
| 20260905124532 | 25 | 203 | 0.0 | 0.0 | 0.00 | 0.00 | 0.00 | 89 | 1016.6 |
| 20260905123018 | 23 | 163 | 0.0 | 0.0 | 0.00 | 0.00 | 0.00 | 92 | 1016.5 |
| 20260905121524 | 22 | 165 | 0.0 | 0.0 | 0.00 | 0.00 | 0.00 | 93 | 1016.4 |
| 20260905120031 | 22 | 165 | 0.0 | 0.0 | 0.00 | 0.00 | 0.00 | 94 | 1016.5 |
| 20260905114530 | 22 | 165 | 0.0 | 0.0 | 0.00 | 0.00 | 0.00 | 94 | 1016.3 |
| 20260905113032 | 22 | 337 | 0.0 | 0.0 | 0.00 | 0.00 | 0.00 | 94 | 1016.1 |
| 20260905111525 | 21 | 204 | 0.0 | 0.0 | 0.00 | 0.00 | 0.00 | 95 | 1015.9 |
| 20260905110028 | 21 | 203 | 0.0 | 0.0 | 0.00 | 0.00 | 0.00 | 95 | 1015.8 |
| 20260905104536 | 21 | 169 | 0.0 | 0.0 | 0.00 | 0.00 | 0.00 | 94 | 1015.7 |
| 20260905103037 | 22 | 160 | 0.0 | 0.0 | 0.00 | 0.00 | 0.00 | 95 | 1015.5 |
| 20260905101536 | 22 | 133 | 0.0 | 0.0 | 0.00 | 0.00 | 0.00 | 95 | 1015.4 |
| 20260905100025 | 21 | 133 | 0.0 | 0.0 | 0.00 | 0.00 | 0.00 | 95 | 1015.4 |
| 20260905094527 | 21 | 133 | 0.0 | 0.0 | 0.00 | 0.00 | 0.00 | 94 | 1015.3 |
| 20260905093008 | 22 | 132 | 0.0 | 0.0 | 0.00 | 0.00 | 0.00 | 94 | 1015.3 |
| 20260905091512 | 22 | 132 | 0.0 | 0.0 | 0.00 | 0.00 | 0.00 | 94 | 1015.3 |
| 20260905090019 | 22 | 132 | 0.0 | 0.0 | 0.00 | 0.00 | 0.00 | 94 | 1015.3 |
| 20260905084523 | 22 | 132 | 0.0 | 0.0 | 0.00 | 0.00 | 0.00 | 94 | 1015.5 |
| 20260905083040 | 22 | 132 | 0.0 | 0.0 | 0.00 | 0.00 | 0.00 | 93 | 1015.6 |
| 20260905081511 | 22 | 156 | 0.0 | 0.0 | 0.00 | 0.00 | 0.00 | 93 | 1015.7 |
| 20260905080017 | 22 | 221 | 0.0 | 0.0 | 0.00 | 0.00 | 0.00 | 93 | 1016.0 |
| 20260905074523 | 22 | 221 | 0.0 | 0.0 | 0.00 | 0.00 | 0.00 | 93 | 1016.0 |
| 20260905073029 | 22 | 345 | 0.0 | 0.0 | 0.00 | 0.00 | 0.00 | 93 | 1016.0 |
| 20260905071530 | 22 | 345 | 0.0 | 0.0 | 0.00 | 0.00 | 0.00 | 92 | 1016.0 |
| 20260905070014 | 23 | 345 | 0.0 | 0.0 | 0.00 | 0.00 | 0.00 | 92 | 1016.1 |
| 20260905064516 | 23 | 345 | 0.0 | 0.0 | 0.00 | 0.00 | 0.00 | 91 | 1016.0 |
| 20260905063024 | 23 | 345 | 0.0 | 0.0 | 0.00 | 0.00 | 0.00 | 90 | 1016.2 |